createdAt,value
2024-04-30T00:01:33.284Z,11.80
2024-04-30T00:04:00.159Z,11.68
2024-04-30T00:06:26.997Z,11.63
2024-04-30T00:08:54.010Z,11.59
2024-04-30T00:11:20.767Z,11.58
2024-04-30T00:13:47.468Z,11.58
2024-04-30T00:16:14.247Z,11.61
2024-04-30T00:18:40.869Z,11.54
2024-04-30T00:21:07.979Z,11.49
2024-04-30T00:23:34.577Z,11.39
2024-04-30T00:26:01.792Z,11.31
2024-04-30T00:28:29.347Z,11.27
2024-04-30T00:30:56.107Z,11.25
2024-04-30T00:33:22.716Z,11.14
2024-04-30T00:35:49.535Z,11.09
2024-04-30T00:38:16.148Z,11.09
2024-04-30T00:40:42.860Z,11.09
2024-04-30T00:43:09.660Z,11.10
2024-04-30T00:45:36.428Z,11.11
2024-04-30T00:48:03.549Z,11.04
2024-04-30T00:50:30.380Z,11.04
2024-04-30T00:52:58.161Z,10.99
2024-04-30T00:55:25.603Z,10.80
2024-04-30T01:00:34.740Z,10.83
2024-04-30T01:03:01.483Z,10.81
2024-04-30T01:05:28.434Z,10.80
2024-04-30T01:07:55.080Z,10.70
2024-04-30T01:10:21.842Z,10.55
2024-04-30T01:12:48.730Z,10.59
2024-04-30T01:15:15.347Z,10.61
2024-04-30T01:17:42.108Z,10.59
2024-04-30T01:20:09.151Z,10.57
2024-04-30T01:22:38.553Z,10.62
2024-04-30T01:25:06.647Z,10.75
2024-04-30T01:27:33.293Z,10.68
2024-04-30T01:29:59.944Z,10.52
2024-04-30T01:32:26.869Z,10.47
2024-04-30T01:34:53.559Z,10.39
2024-04-30T01:37:20.196Z,10.40
2024-04-30T01:39:46.942Z,10.02
2024-04-30T01:42:13.563Z,10.01
2024-04-30T01:44:40.260Z,10.16
2024-04-30T01:47:06.962Z,10.19
2024-04-30T01:49:33.734Z,10.21
2024-04-30T01:52:01.277Z,10.12
2024-04-30T01:54:30.570Z,10.20
2024-04-30T01:56:57.551Z,10.22
2024-04-30T01:59:24.273Z,10.18
2024-04-30T02:01:51.101Z,10.18
2024-04-30T02:04:17.910Z,10.16
2024-04-30T02:06:44.547Z,10.00
2024-04-30T02:09:11.271Z,9.93
2024-04-30T02:11:37.965Z,9.95
2024-04-30T02:14:05.303Z,10.05
2024-04-30T02:16:32.091Z,10.12
2024-04-30T02:18:58.903Z,10.17
2024-04-30T02:21:25.975Z,10.08
2024-04-30T02:23:52.571Z,9.90
2024-04-30T02:26:19.220Z,9.91
2024-04-30T02:28:45.819Z,9.88
2024-04-30T02:31:31.034Z,9.96
2024-04-30T02:34:16.509Z,9.98
2024-04-30T02:36:43.174Z,10.01
2024-04-30T02:39:09.848Z,9.95
2024-04-30T02:41:36.465Z,9.99
2024-04-30T02:44:03.174Z,9.97
2024-04-30T02:46:31.268Z,9.89
2024-04-30T02:48:58.313Z,9.84
2024-04-30T02:51:25.848Z,9.83
2024-04-30T02:53:52.617Z,9.76
2024-04-30T02:56:19.244Z,9.82
2024-04-30T02:58:45.953Z,9.83
2024-04-30T03:01:14.394Z,9.86
2024-04-30T03:03:41.795Z,9.86
2024-04-30T03:06:08.476Z,9.78
2024-04-30T03:08:38.269Z,9.78
2024-04-30T03:11:05.383Z,9.76
2024-04-30T03:13:32.165Z,9.83
2024-04-30T03:15:58.980Z,9.72
2024-04-30T03:18:25.968Z,9.71
2024-04-30T03:20:52.654Z,9.76
2024-04-30T03:23:19.355Z,9.75
2024-04-30T03:25:45.954Z,9.78
2024-04-30T03:28:12.625Z,9.73
2024-04-30T03:30:39.336Z,9.72
2024-04-30T03:33:06.152Z,9.65
2024-04-30T03:35:32.883Z,9.58
2024-04-30T03:37:59.671Z,9.60
2024-04-30T03:40:26.379Z,9.57
2024-04-30T03:42:54.537Z,9.59
2024-04-30T03:45:21.566Z,9.66
2024-04-30T03:47:48.505Z,9.68
2024-04-30T03:50:15.207Z,9.60
2024-04-30T03:52:41.906Z,9.61
2024-04-30T03:55:08.705Z,9.66
2024-04-30T03:57:35.343Z,9.68
2024-04-30T04:00:02.165Z,9.68
2024-04-30T04:02:28.905Z,9.68
2024-04-30T04:04:55.602Z,9.66
2024-04-30T04:07:22.389Z,9.60
2024-04-30T04:09:49.082Z,9.59
2024-04-30T04:12:35.518Z,9.73
2024-04-30T04:15:02.930Z,9.74
2024-04-30T04:17:29.751Z,9.67
2024-04-30T04:19:56.442Z,9.75
2024-04-30T04:22:23.162Z,9.82
2024-04-30T04:24:49.968Z,9.85
2024-04-30T04:27:16.573Z,9.93
2024-04-30T04:29:43.249Z,10.09
2024-04-30T04:32:09.907Z,10.36
2024-04-30T04:34:39.121Z,10.55
2024-04-30T04:37:05.922Z,10.65
2024-04-30T04:39:33.282Z,10.78
2024-04-30T04:42:00.037Z,10.94
2024-04-30T04:44:26.727Z,11.05
2024-04-30T04:46:53.540Z,11.23
2024-04-30T04:49:20.418Z,11.66
2024-04-30T04:51:47.059Z,12.08
2024-04-30T04:54:13.805Z,12.51
2024-04-30T04:56:40.451Z,12.83
2024-04-30T04:59:07.049Z,13.03
2024-04-30T05:01:33.738Z,13.38
2024-04-30T05:04:00.454Z,13.60
2024-04-30T05:06:27.211Z,13.68
2024-04-30T05:08:56.049Z,13.72
2024-04-30T05:11:22.828Z,13.63
2024-04-30T05:13:49.838Z,13.58
2024-04-30T05:16:16.573Z,13.62
2024-04-30T05:18:43.178Z,13.68
2024-04-30T05:21:10.603Z,13.39
2024-04-30T05:23:37.262Z,13.63
2024-04-30T05:26:04.127Z,13.71
2024-04-30T05:28:30.745Z,13.99
2024-04-30T05:30:57.702Z,14.89
2024-04-30T05:33:24.443Z,15.81
2024-04-30T05:35:51.509Z,16.12
2024-04-30T05:38:18.172Z,17.14
2024-04-30T05:40:44.859Z,17.76
2024-04-30T05:43:12.248Z,18.45
2024-04-30T05:45:39.016Z,19.04
2024-04-30T05:48:06.311Z,19.35
2024-04-30T05:50:32.983Z,19.69
2024-04-30T05:52:59.661Z,20.33
2024-04-30T05:55:26.464Z,20.82
2024-04-30T05:57:55.483Z,20.65
2024-04-30T06:00:22.367Z,20.96
2024-04-30T06:02:49.182Z,21.42
2024-04-30T06:05:17.420Z,20.96
2024-04-30T06:07:44.173Z,21.52
2024-04-30T06:10:10.829Z,21.46
2024-04-30T06:12:37.611Z,21.40
2024-04-30T06:15:04.628Z,21.56
2024-04-30T06:17:31.190Z,21.73
2024-04-30T06:19:57.806Z,21.99
2024-04-30T06:22:24.437Z,22.07
2024-04-30T06:24:51.137Z,22.22
2024-04-30T06:27:17.714Z,22.49
2024-04-30T06:29:44.311Z,22.60
2024-04-30T06:32:10.916Z,22.93
2024-04-30T06:34:38.750Z,23.10
2024-04-30T06:37:06.779Z,22.89
2024-04-30T06:39:33.392Z,22.92
2024-04-30T06:41:59.985Z,22.73
2024-04-30T06:44:26.680Z,22.72
2024-04-30T06:46:53.305Z,22.63
2024-04-30T06:49:21.316Z,22.69
2024-04-30T06:51:48.866Z,23.17
2024-04-30T06:54:15.438Z,23.86
2024-04-30T06:56:42.053Z,24.22
2024-04-30T06:59:08.682Z,23.89
2024-04-30T07:01:35.506Z,23.98
2024-04-30T07:04:02.411Z,24.17
2024-04-30T07:06:29.111Z,24.44
2024-04-30T07:08:55.784Z,24.27
2024-04-30T07:11:22.413Z,24.61
2024-04-30T07:13:49.084Z,24.67
2024-04-30T07:16:15.822Z,24.79
2024-04-30T07:18:42.768Z,25.14
2024-04-30T07:21:09.463Z,24.66
2024-04-30T07:23:36.036Z,24.75
2024-04-30T07:26:02.628Z,25.01
2024-04-30T07:28:29.343Z,24.99
2024-04-30T07:30:55.955Z,25.29
2024-04-30T07:33:22.627Z,25.25
2024-04-30T07:35:49.248Z,25.42
2024-04-30T07:38:15.883Z,26.02
2024-04-30T07:40:42.595Z,24.92
2024-04-30T07:43:09.233Z,25.75
2024-04-30T07:45:35.959Z,25.90
2024-04-30T07:48:02.647Z,25.73
2024-04-30T07:50:29.383Z,25.75
2024-04-30T07:52:55.974Z,25.96
2024-04-30T07:55:22.592Z,25.36
2024-04-30T07:57:49.226Z,25.63
2024-04-30T08:00:16.091Z,25.37
2024-04-30T08:02:42.697Z,25.45
2024-04-30T08:05:09.343Z,25.44
2024-04-30T08:07:35.955Z,25.75
2024-04-30T08:10:04.792Z,25.78
2024-04-30T08:12:31.516Z,25.68
2024-04-30T08:14:58.271Z,26.18
2024-04-30T08:17:25.061Z,26.32
2024-04-30T08:19:51.795Z,26.01
2024-04-30T08:22:18.483Z,25.65
2024-04-30T08:24:45.062Z,25.85
2024-04-30T08:27:11.672Z,25.74
2024-04-30T08:29:38.338Z,25.90
2024-04-30T08:32:05.530Z,25.90
2024-04-30T08:34:33.179Z,26.07
2024-04-30T08:37:00.131Z,26.53
2024-04-30T08:39:26.786Z,26.73
2024-04-30T08:41:54.666Z,26.63
2024-04-30T08:44:21.919Z,26.61
2024-04-30T08:46:49.459Z,26.82
2024-04-30T08:49:27.786Z,27.12
2024-04-30T08:52:01.245Z,27.24
2024-04-30T08:54:31.247Z,27.19
2024-04-30T08:56:57.867Z,27.24
2024-04-30T08:59:24.611Z,27.34
2024-04-30T09:01:53.308Z,27.91
2024-04-30T09:04:22.291Z,27.44
2024-04-30T09:06:49.739Z,27.73
2024-04-30T09:09:16.822Z,28.40
2024-04-30T09:11:44.251Z,27.99
2024-04-30T09:14:10.999Z,28.20
2024-04-30T09:16:48.656Z,28.24
2024-04-30T09:19:30.340Z,27.78
2024-04-30T09:22:07.593Z,27.89
2024-04-30T09:24:34.466Z,27.97
2024-04-30T09:27:01.149Z,27.91
2024-04-30T09:29:42.129Z,27.87
2024-04-30T09:32:14.759Z,27.06
2024-04-30T09:34:42.452Z,27.46
2024-04-30T09:37:20.903Z,26.86
2024-04-30T09:39:49.696Z,26.60
2024-04-30T09:42:16.802Z,27.28
2024-04-30T09:44:43.841Z,27.25
2024-04-30T09:47:10.868Z,27.89
2024-04-30T09:49:37.657Z,27.22
2024-04-30T09:52:06.512Z,27.28
2024-04-30T09:54:37.171Z,27.99
2024-04-30T09:57:07.398Z,27.84
2024-04-30T09:59:34.379Z,27.59
2024-04-30T10:02:07.476Z,28.18
2024-04-30T10:04:35.967Z,28.03
2024-04-30T10:07:04.724Z,26.98
2024-04-30T10:09:32.211Z,27.10
2024-04-30T10:11:58.938Z,26.79
2024-04-30T10:14:32.390Z,26.61
2024-04-30T10:17:02.468Z,27.58
2024-04-30T10:19:29.266Z,27.15
2024-04-30T10:21:56.065Z,27.54
2024-04-30T10:24:24.148Z,27.04
2024-04-30T10:26:51.947Z,26.48
2024-04-30T10:29:19.331Z,26.77
2024-04-30T10:31:49.625Z,27.35
2024-04-30T10:34:16.846Z,27.07
2024-04-30T10:36:52.296Z,26.65
2024-04-30T10:39:28.480Z,26.90
2024-04-30T10:41:58.319Z,27.68
2024-04-30T10:44:30.441Z,27.63
2024-04-30T10:46:57.996Z,26.77
2024-04-30T10:49:24.697Z,27.13
2024-04-30T10:51:51.663Z,26.83
2024-04-30T10:54:18.502Z,26.67
2024-04-30T10:56:46.215Z,27.18
2024-04-30T10:59:12.890Z,26.39
2024-04-30T11:01:39.866Z,26.56
2024-04-30T11:04:07.061Z,26.42
2024-04-30T11:06:49.474Z,26.78
2024-04-30T11:09:16.919Z,26.58
2024-04-30T11:11:48.062Z,26.44
2024-04-30T11:14:15.358Z,26.76
2024-04-30T11:16:44.072Z,26.71
2024-04-30T11:19:12.903Z,27.02
2024-04-30T11:21:39.921Z,27.49
2024-04-30T11:24:07.255Z,27.05
2024-04-30T11:26:34.318Z,26.64
2024-04-30T11:29:15.625Z,26.88
2024-04-30T11:31:47.982Z,26.68
2024-04-30T11:34:14.627Z,26.25
2024-04-30T11:36:41.361Z,26.80
2024-04-30T11:39:12.211Z,27.18
2024-04-30T11:41:43.558Z,27.24
2024-04-30T11:44:14.966Z,27.40
2024-04-30T11:46:41.624Z,26.90
2024-04-30T11:49:08.392Z,27.02
2024-04-30T11:51:35.009Z,27.46
2024-04-30T11:54:01.721Z,27.78
2024-04-30T11:56:31.620Z,27.74
2024-04-30T11:58:58.578Z,27.48
2024-04-30T12:01:25.516Z,27.41
2024-04-30T12:03:52.224Z,27.25
2024-04-30T12:06:18.887Z,27.27
2024-04-30T12:08:46.348Z,27.58
2024-04-30T12:11:13.115Z,26.85
2024-04-30T12:13:39.924Z,27.11
2024-04-30T12:16:06.782Z,27.09
2024-04-30T12:18:33.563Z,27.22
2024-04-30T12:21:00.430Z,27.06
2024-04-30T12:23:27.319Z,27.32
2024-04-30T12:25:55.271Z,27.73
2024-04-30T12:28:22.079Z,27.94
2024-04-30T12:30:48.822Z,27.58
2024-04-30T12:33:17.078Z,27.67
2024-04-30T12:35:46.407Z,27.56
2024-04-30T12:38:14.660Z,27.33
2024-04-30T12:40:42.222Z,27.72
2024-04-30T12:43:09.054Z,27.85
2024-04-30T12:45:35.889Z,27.39
2024-04-30T12:48:03.237Z,27.70
2024-04-30T12:50:29.924Z,27.13
2024-04-30T12:52:56.631Z,27.32
2024-04-30T12:55:23.295Z,27.45
2024-04-30T12:57:49.950Z,27.86
2024-04-30T13:00:16.717Z,28.12
2024-04-30T13:02:43.412Z,27.89
2024-04-30T13:05:10.179Z,27.86
2024-04-30T13:07:36.916Z,27.53
2024-04-30T13:10:03.623Z,27.06
2024-04-30T13:12:30.349Z,27.67
2024-04-30T13:14:56.894Z,27.86
2024-04-30T13:17:25.379Z,27.97
2024-04-30T13:19:52.079Z,27.99
2024-04-30T13:22:19.066Z,28.03
2024-04-30T13:24:45.705Z,27.25
2024-04-30T13:27:15.454Z,27.25
2024-04-30T13:29:43.357Z,27.44
2024-04-30T13:32:10.044Z,27.63
2024-04-30T13:34:36.936Z,27.69
2024-04-30T13:37:03.806Z,27.84
2024-04-30T13:39:30.499Z,27.78
2024-04-30T13:41:57.943Z,27.28
2024-04-30T13:44:24.818Z,27.74
2024-04-30T13:46:51.477Z,27.63
2024-04-30T13:49:18.232Z,27.88
2024-04-30T13:51:45.467Z,27.49
2024-04-30T13:54:12.250Z,27.23
2024-04-30T13:56:39.042Z,27.32
2024-04-30T13:59:08.593Z,27.48
2024-04-30T14:01:38.927Z,27.01
2024-04-30T14:04:05.649Z,26.71
2024-04-30T14:06:32.330Z,26.82
2024-04-30T14:08:59.075Z,26.47
2024-04-30T14:11:25.814Z,27.02
2024-04-30T14:13:53.145Z,26.53
2024-04-30T14:16:19.798Z,26.75
2024-04-30T14:18:46.521Z,27.00
2024-04-30T14:21:13.207Z,27.18
2024-04-30T14:23:39.872Z,27.33
2024-04-30T14:26:08.423Z,27.37
2024-04-30T14:28:35.865Z,27.21
2024-04-30T14:31:02.458Z,27.24
2024-04-30T14:33:29.118Z,27.10
2024-04-30T14:36:14.432Z,27.22
2024-04-30T14:38:41.053Z,26.80
2024-04-30T14:41:14.658Z,26.93
2024-04-30T14:43:41.786Z,26.67
2024-04-30T14:46:09.086Z,26.78
2024-04-30T14:48:35.808Z,26.62
2024-04-30T14:51:02.449Z,27.07
2024-04-30T14:53:29.142Z,26.88
2024-04-30T14:55:55.743Z,26.80
2024-04-30T14:58:22.718Z,27.07
2024-04-30T15:00:49.349Z,27.11
2024-04-30T15:03:18.848Z,27.01
2024-04-30T15:05:45.591Z,26.91
2024-04-30T15:08:12.298Z,26.97
2024-04-30T15:10:38.994Z,26.76
2024-04-30T15:13:06.761Z,26.63
2024-04-30T15:15:33.585Z,26.73
2024-04-30T15:18:00.279Z,26.75
2024-04-30T15:20:27.220Z,26.78
2024-04-30T15:22:53.983Z,26.90
2024-04-30T15:25:21.107Z,26.82
2024-04-30T15:27:49.442Z,26.57
2024-04-30T15:30:17.421Z,26.75
2024-04-30T15:32:45.859Z,26.91
2024-04-30T15:35:20.242Z,27.03
2024-04-30T15:37:46.898Z,26.81
2024-04-30T15:40:13.681Z,26.56
2024-04-30T15:42:40.467Z,26.40
2024-04-30T15:45:07.519Z,26.67
2024-04-30T15:47:34.169Z,26.50
2024-04-30T15:50:00.923Z,26.57
2024-04-30T15:52:28.079Z,26.48
2024-04-30T15:54:57.319Z,26.40
2024-04-30T15:57:24.013Z,26.46
2024-04-30T15:59:51.064Z,26.52
2024-04-30T16:02:18.508Z,26.38
2024-04-30T16:04:45.212Z,26.57
2024-04-30T16:07:13.342Z,26.60
2024-04-30T16:09:41.042Z,26.51
2024-04-30T16:12:07.852Z,26.48
2024-04-30T16:14:34.482Z,26.29
2024-04-30T16:17:01.390Z,26.39
2024-04-30T16:19:29.015Z,26.18
2024-04-30T16:21:56.006Z,26.26
2024-04-30T16:24:23.420Z,26.16
2024-04-30T16:26:50.459Z,25.95
2024-04-30T16:29:17.132Z,26.05
2024-04-30T16:31:43.934Z,26.07
2024-04-30T16:34:10.742Z,25.96
2024-04-30T16:36:37.590Z,25.86
2024-04-30T16:39:04.342Z,25.90
2024-04-30T16:41:31.180Z,25.85
2024-04-30T16:43:57.914Z,25.77
2024-04-30T16:46:24.734Z,25.78
2024-04-30T16:48:53.291Z,25.60
2024-04-30T16:51:20.430Z,25.54
2024-04-30T16:53:47.286Z,25.53
2024-04-30T16:56:16.239Z,25.50
2024-04-30T16:58:43.881Z,25.44
2024-04-30T17:01:11.035Z,25.34
2024-04-30T17:03:43.227Z,25.30
2024-04-30T17:06:14.308Z,25.27
2024-04-30T17:08:41.711Z,25.18
2024-04-30T17:11:11.848Z,25.05
2024-04-30T17:13:42.500Z,24.96
2024-04-30T17:16:17.137Z,24.98
2024-04-30T17:18:44.168Z,24.80
2024-04-30T17:21:14.953Z,24.66
2024-04-30T17:23:42.022Z,24.51
2024-04-30T17:26:09.142Z,24.37
2024-04-30T17:28:35.830Z,24.40
2024-04-30T17:31:02.740Z,24.22
2024-04-30T17:33:29.475Z,24.16
2024-04-30T19:05:12.485Z,20.24
2024-04-30T19:15:47.874Z,20.04
2024-04-30T19:18:18.417Z,20.33
2024-04-30T19:20:49.534Z,19.97
2024-04-30T19:23:26.079Z,19.84
2024-04-30T19:25:56.154Z,19.66
2024-04-30T19:28:27.436Z,19.60
2024-04-30T19:30:59.192Z,19.97
2024-04-30T19:33:28.584Z,19.79
2024-04-30T19:35:55.924Z,19.54
2024-04-30T19:38:24.847Z,19.41
2024-04-30T19:40:52.878Z,19.36
2024-04-30T19:43:19.826Z,19.29
2024-04-30T19:45:48.025Z,19.46
2024-04-30T19:48:17.870Z,19.32
2024-04-30T19:50:46.303Z,19.28
2024-04-30T19:53:13.311Z,19.18
2024-04-30T19:55:41.133Z,19.04
2024-04-30T19:58:08.205Z,18.85
2024-04-30T20:00:35.113Z,18.73
2024-04-30T20:03:02.074Z,18.69
2024-04-30T20:05:30.370Z,18.62
2024-04-30T20:08:00.125Z,18.65
2024-04-30T20:10:35.863Z,18.69
2024-04-30T20:21:01.670Z,18.37
2024-04-30T20:23:28.353Z,18.37
2024-04-30T20:25:55.064Z,18.31
2024-04-30T20:28:22.592Z,18.29
2024-04-30T20:30:49.308Z,18.20
2024-04-30T20:41:23.443Z,18.04
2024-04-30T20:47:40.941Z,18.18
2024-04-30T20:50:07.955Z,18.20
2024-04-30T20:52:34.913Z,18.08
2024-04-30T20:55:01.663Z,18.21
2024-04-30T20:57:28.372Z,18.13
2024-04-30T20:59:55.031Z,18.13
2024-04-30T21:02:25.211Z,17.84
2024-04-30T21:04:57.374Z,17.85
2024-04-30T21:07:24.295Z,17.84
2024-04-30T21:09:51.084Z,17.67
2024-04-30T21:12:17.943Z,17.40
2024-04-30T21:14:44.675Z,17.28
2024-04-30T21:17:11.353Z,17.32
2024-04-30T21:19:38.377Z,17.23
2024-04-30T21:22:05.258Z,17.10
2024-04-30T21:24:32.092Z,17.16
2024-04-30T21:26:58.857Z,17.15
2024-04-30T21:29:26.020Z,17.11
2024-04-30T21:31:55.676Z,17.01
2024-04-30T21:34:31.881Z,17.03
2024-04-30T21:37:05.369Z,17.05
2024-04-30T21:39:32.320Z,16.98
2024-04-30T21:42:00.073Z,16.82
2024-04-30T21:44:26.778Z,16.66
2024-04-30T21:46:53.497Z,16.59
2024-04-30T21:49:20.284Z,16.51
2024-04-30T21:51:47.195Z,16.57
2024-04-30T21:54:14.384Z,16.57
2024-04-30T21:56:41.194Z,16.66
2024-04-30T22:06:57.746Z,16.31
2024-04-30T22:09:25.162Z,16.06
2024-04-30T22:11:56.851Z,16.03
2024-04-30T22:14:23.863Z,15.95
2024-04-30T22:16:50.499Z,15.90
2024-04-30T22:19:17.506Z,15.78
2024-04-30T22:21:47.287Z,16.06
2024-04-30T22:24:14.187Z,15.87
2024-04-30T22:26:42.426Z,15.84
2024-04-30T22:29:11.946Z,15.85
2024-04-30T22:31:38.657Z,15.93
2024-04-30T22:34:05.476Z,15.88
2024-04-30T22:36:32.435Z,15.86
2024-04-30T22:38:59.147Z,15.84
2024-04-30T22:41:25.799Z,15.87
2024-04-30T22:43:52.555Z,15.72
2024-04-30T22:46:19.272Z,15.69
2024-04-30T22:48:46.279Z,15.68
2024-04-30T22:51:17.737Z,15.67
2024-04-30T22:53:50.677Z,15.62
2024-04-30T22:56:23.546Z,15.58
2024-04-30T22:58:50.248Z,15.51
2024-04-30T23:01:17.097Z,15.49
2024-04-30T23:03:43.994Z,15.62
2024-04-30T23:06:11.434Z,15.50
2024-04-30T23:08:41.125Z,15.52
2024-04-30T23:11:07.754Z,15.38
2024-04-30T23:13:34.436Z,15.35
2024-04-30T23:16:02.982Z,15.35
2024-04-30T23:18:29.783Z,15.34
2024-04-30T23:20:56.945Z,15.34
2024-04-30T23:23:24.900Z,15.31
2024-04-30T23:25:51.577Z,15.17
2024-04-30T23:28:18.391Z,15.30
2024-04-30T23:30:44.997Z,15.17
2024-04-30T23:33:11.692Z,15.06
2024-04-30T23:35:38.299Z,15.13
2024-04-30T23:38:05.055Z,15.10
2024-04-30T23:40:31.683Z,15.05
2024-04-30T23:42:58.404Z,15.08
2024-04-30T23:45:25.058Z,15.12
2024-04-30T23:47:53.827Z,15.18
2024-04-30T23:50:22.205Z,15.17
2024-04-30T23:53:43.225Z,15.15
2024-04-30T23:59:57.433Z,14.89
